sensor_id;sensor_type;location;lat;lon;timestamp;temperature;humidity
38606;DHT22;24365;48.446;8.850;2023-02-05T00:00:19;1.70;81.10
38606;DHT22;24365;48.446;8.850;2023-02-05T00:05:19;1.80;80.90
38606;DHT22;24365;48.446;8.850;2023-02-05T00:10:20;1.70;81.30
38606;DHT22;24365;48.446;8.850;2023-02-05T00:15:21;1.70;82.10
38606;DHT22;24365;48.446;8.850;2023-02-05T00:20:21;1.70;82.00
38606;DHT22;24365;48.446;8.850;2023-02-05T00:25:22;1.60;82.40
38606;DHT22;24365;48.446;8.850;2023-02-05T00:30:25;1.70;83.00
38606;DHT22;24365;48.446;8.850;2023-02-05T00:35:25;1.70;82.40
38606;DHT22;24365;48.446;8.850;2023-02-05T00:40:26;1.70;82.20
38606;DHT22;24365;48.446;8.850;2023-02-05T00:45:27;1.80;82.30
38606;DHT22;24365;48.446;8.850;2023-02-05T00:50:34;1.90;80.60
38606;DHT22;24365;48.446;8.850;2023-02-05T00:55:34;1.90;80.60
38606;DHT22;24365;48.446;8.850;2023-02-05T01:00:35;1.90;80.70
38606;DHT22;24365;48.446;8.850;2023-02-05T01:05:36;1.80;80.80
38606;DHT22;24365;48.446;8.850;2023-02-05T01:10:37;1.90;81.20
38606;DHT22;24365;48.446;8.850;2023-02-05T01:15:38;1.90;80.70
38606;DHT22;24365;48.446;8.850;2023-02-05T01:20:40;1.90;80.10
38606;DHT22;24365;48.446;8.850;2023-02-05T01:25:41;1.90;80.00
38606;DHT22;24365;48.446;8.850;2023-02-05T01:30:45;1.90;79.70
38606;DHT22;24365;48.446;8.850;2023-02-05T01:35:48;1.80;79.50
38606;DHT22;24365;48.446;8.850;2023-02-05T01:40:48;1.80;80.50
38606;DHT22;24365;48.446;8.850;2023-02-05T01:51:09;1.80;80.60
38606;DHT22;24365;48.446;8.850;2023-02-05T01:56:33;1.80;79.60
38606;DHT22;24365;48.446;8.850;2023-02-05T02:01:32;1.80;79.20
38606;DHT22;24365;48.446;8.850;2023-02-05T02:06:33;1.80;78.20
38606;DHT22;24365;48.446;8.850;2023-02-05T02:11:36;1.70;79.00
38606;DHT22;24365;48.446;8.850;2023-02-05T02:16:37;1.60;79.50
38606;DHT22;24365;48.446;8.850;2023-02-05T02:32:15;1.40;79.40
38606;DHT22;24365;48.446;8.850;2023-02-05T02:37:23;1.40;80.70
38606;DHT22;24365;48.446;8.850;2023-02-05T02:42:28;1.50;81.20
38606;DHT22;24365;48.446;8.850;2023-02-05T02:47:31;1.50;80.20
38606;DHT22;24365;48.446;8.850;2023-02-05T02:52:35;1.50;80.60
38606;DHT22;24365;48.446;8.850;2023-02-05T02:57:37;1.50;80.50
38606;DHT22;24365;48.446;8.850;2023-02-05T03:02:38;1.50;80.60
38606;DHT22;24365;48.446;8.850;2023-02-05T03:07:41;1.50;80.50
38606;DHT22;24365;48.446;8.850;2023-02-05T03:12:43;1.50;79.60
38606;DHT22;24365;48.446;8.850;2023-02-05T03:17:44;1.50;79.20
38606;DHT22;24365;48.446;8.850;2023-02-05T03:22:46;1.50;79.60
38606;DHT22;24365;48.446;8.850;2023-02-05T03:27:47;1.50;79.80
38606;DHT22;24365;48.446;8.850;2023-02-05T03:33:50;1.50;80.30
38606;DHT22;24365;48.446;8.850;2023-02-05T03:48:58;1.40;80.00
38606;DHT22;24365;48.446;8.850;2023-02-05T03:54:08;1.30;80.50
38606;DHT22;24365;48.446;8.850;2023-02-05T03:59:12;1.40;80.50
38606;DHT22;24365;48.446;8.850;2023-02-05T04:04:16;1.30;80.40
38606;DHT22;24365;48.446;8.850;2023-02-05T04:09:18;1.40;79.70
38606;DHT22;24365;48.446;8.850;2023-02-05T04:14:19;1.40;79.10
38606;DHT22;24365;48.446;8.850;2023-02-05T04:19:20;1.10;79.60
38606;DHT22;24365;48.446;8.850;2023-02-05T04:24:21;1.10;80.70
38606;DHT22;24365;48.446;8.850;2023-02-05T04:29:22;1.00;81.70
38606;DHT22;24365;48.446;8.850;2023-02-05T04:34:25;1.00;80.50
38606;DHT22;24365;48.446;8.850;2023-02-05T04:39:26;1.00;81.20
38606;DHT22;24365;48.446;8.850;2023-02-05T04:44:27;1.00;81.70
38606;DHT22;24365;48.446;8.850;2023-02-05T04:49:28;1.00;80.00
38606;DHT22;24365;48.446;8.850;2023-02-05T04:54:30;1.00;80.10
38606;DHT22;24365;48.446;8.850;2023-02-05T04:59:31;1.00;80.10
38606;DHT22;24365;48.446;8.850;2023-02-05T05:04:32;1.00;79.30
38606;DHT22;24365;48.446;8.850;2023-02-05T05:09:32;0.70;79.60
38606;DHT22;24365;48.446;8.850;2023-02-05T05:14:33;0.80;80.50
38606;DHT22;24365;48.446;8.850;2023-02-05T05:19:34;0.80;80.20
38606;DHT22;24365;48.446;8.850;2023-02-05T05:24:35;0.80;79.40
38606;DHT22;24365;48.446;8.850;2023-02-05T05:29:36;0.80;79.30
38606;DHT22;24365;48.446;8.850;2023-02-05T05:34:36;0.80;79.80
38606;DHT22;24365;48.446;8.850;2023-02-05T05:39:37;0.80;80.00
38606;DHT22;24365;48.446;8.850;2023-02-05T05:50:05;0.60;81.40
38606;DHT22;24365;48.446;8.850;2023-02-05T05:55:06;0.60;81.20
38606;DHT22;24365;48.446;8.850;2023-02-05T06:00:07;0.60;81.40
38606;DHT22;24365;48.446;8.850;2023-02-05T06:05:12;0.50;82.10
38606;DHT22;24365;48.446;8.850;2023-02-05T06:10:13;0.40;83.70
38606;DHT22;24365;48.446;8.850;2023-02-05T06:15:14;0.50;84.50
38606;DHT22;24365;48.446;8.850;2023-02-05T06:20:14;0.50;84.10
38606;DHT22;24365;48.446;8.850;2023-02-05T06:25:15;0.40;85.00
38606;DHT22;24365;48.446;8.850;2023-02-05T06:30:16;0.20;86.50
38606;DHT22;24365;48.446;8.850;2023-02-05T06:35:17;0.20;87.70
38606;DHT22;24365;48.446;8.850;2023-02-05T06:40:18;0.20;89.00
38606;DHT22;24365;48.446;8.850;2023-02-05T06:45:21;0.40;87.90
38606;DHT22;24365;48.446;8.850;2023-02-05T06:50:22;0.40;87.30
38606;DHT22;24365;48.446;8.850;2023-02-05T06:55:23;0.40;87.20
38606;DHT22;24365;48.446;8.850;2023-02-05T07:00:25;0.60;86.60
38606;DHT22;24365;48.446;8.850;2023-02-05T07:05:26;0.60;86.10
38606;DHT22;24365;48.446;8.850;2023-02-05T07:10:27;0.60;86.40
38606;DHT22;24365;48.446;8.850;2023-02-05T07:15:28;0.60;85.90
38606;DHT22;24365;48.446;8.850;2023-02-05T07:20:29;0.70;86.00
38606;DHT22;24365;48.446;8.850;2023-02-05T07:25:30;0.70;85.50
38606;DHT22;24365;48.446;8.850;2023-02-05T07:30:35;0.80;85.60
38606;DHT22;24365;48.446;8.850;2023-02-05T07:35:36;0.80;86.60
38606;DHT22;24365;48.446;8.850;2023-02-05T07:40:37;0.80;86.10
38606;DHT22;24365;48.446;8.850;2023-02-05T07:45:38;0.90;86.00
38606;DHT22;24365;48.446;8.850;2023-02-05T07:50:42;0.90;86.00
38606;DHT22;24365;48.446;8.850;2023-02-05T07:55:44;1.00;86.20
38606;DHT22;24365;48.446;8.850;2023-02-05T08:00:44;0.90;86.70
38606;DHT22;24365;48.446;8.850;2023-02-05T08:05:45;0.90;86.90
38606;DHT22;24365;48.446;8.850;2023-02-05T08:10:46;1.00;86.90
38606;DHT22;24365;48.446;8.850;2023-02-05T08:15:47;1.00;87.00
38606;DHT22;24365;48.446;8.850;2023-02-05T08:20:50;1.10;88.00
38606;DHT22;24365;48.446;8.850;2023-02-05T08:25:55;1.20;87.30
38606;DHT22;24365;48.446;8.850;2023-02-05T08:30:55;1.20;87.40
38606;DHT22;24365;48.446;8.850;2023-02-05T08:35:56;1.20;87.70
38606;DHT22;24365;48.446;8.850;2023-02-05T08:40:57;1.30;87.80
38606;DHT22;24365;48.446;8.850;2023-02-05T08:45:58;1.30;89.10
38606;DHT22;24365;48.446;8.850;2023-02-05T08:50:58;1.40;88.30
38606;DHT22;24365;48.446;8.850;2023-02-05T08:56:00;1.40;88.60
38606;DHT22;24365;48.446;8.850;2023-02-05T09:01:11;1.40;88.60
38606;DHT22;24365;48.446;8.850;2023-02-05T09:06:13;1.50;88.50
38606;DHT22;24365;48.446;8.850;2023-02-05T09:11:19;1.60;89.30
38606;DHT22;24365;48.446;8.850;2023-02-05T09:16:20;1.60;89.60
38606;DHT22;24365;48.446;8.850;2023-02-05T09:21:20;1.70;91.00
38606;DHT22;24365;48.446;8.850;2023-02-05T09:26:21;1.70;91.70
38606;DHT22;24365;48.446;8.850;2023-02-05T09:31:22;1.80;92.40
38606;DHT22;24365;48.446;8.850;2023-02-05T09:36:23;1.90;92.30
38606;DHT22;24365;48.446;8.850;2023-02-05T09:41:25;2.10;92.60
38606;DHT22;24365;48.446;8.850;2023-02-05T09:51:40;2.20;92.30
38606;DHT22;24365;48.446;8.850;2023-02-05T09:56:41;2.30;91.60
38606;DHT22;24365;48.446;8.850;2023-02-05T10:01:44;2.30;91.30
38606;DHT22;24365;48.446;8.850;2023-02-05T10:27:26;2.40;92.90
38606;DHT22;24365;48.446;8.850;2023-02-05T10:37:52;2.50;92.60
38606;DHT22;24365;48.446;8.850;2023-02-05T10:48:00;2.60;92.00
38606;DHT22;24365;48.446;8.850;2023-02-05T10:53:02;2.70;92.10
38606;DHT22;24365;48.446;8.850;2023-02-05T10:58:08;2.80;92.20
38606;DHT22;24365;48.446;8.850;2023-02-05T11:03:21;2.90;91.90
38606;DHT22;24365;48.446;8.850;2023-02-05T11:08:33;3.00;89.30
38606;DHT22;24365;48.446;8.850;2023-02-05T11:13:35;3.00;87.80
38606;DHT22;24365;48.446;8.850;2023-02-05T11:18:38;3.00;87.90
38606;DHT22;24365;48.446;8.850;2023-02-05T11:23:40;3.00;88.00
38606;DHT22;24365;48.446;8.850;2023-02-05T11:28:53;3.10;87.50
38606;DHT22;24365;48.446;8.850;2023-02-05T11:39:26;3.20;86.40
38606;DHT22;24365;48.446;8.850;2023-02-05T11:44:28;3.20;86.50
38606;DHT22;24365;48.446;8.850;2023-02-05T11:49:36;3.30;87.10
38606;DHT22;24365;48.446;8.850;2023-02-05T11:54:38;3.30;87.50
38606;DHT22;24365;48.446;8.850;2023-02-05T12:04:56;3.30;87.30
38606;DHT22;24365;48.446;8.850;2023-02-05T12:09:58;3.40;87.30
38606;DHT22;24365;48.446;8.850;2023-02-05T12:20:04;3.50;87.30
38606;DHT22;24365;48.446;8.850;2023-02-05T12:45:44;3.60;86.80
38606;DHT22;24365;48.446;8.850;2023-02-05T12:56:51;3.60;87.60
38606;DHT22;24365;48.446;8.850;2023-02-05T13:01:44;3.60;87.90
38606;DHT22;24365;48.446;8.850;2023-02-05T13:06:51;3.60;88.40
38606;DHT22;24365;48.446;8.850;2023-02-05T13:12:01;3.60;89.00
38606;DHT22;24365;48.446;8.850;2023-02-05T13:17:14;3.60;88.60
38606;DHT22;24365;48.446;8.850;2023-02-05T13:22:18;3.60;90.20
38606;DHT22;24365;48.446;8.850;2023-02-05T13:27:41;3.60;89.80
38606;DHT22;24365;48.446;8.850;2023-02-05T13:33:02;3.60;90.50
38606;DHT22;24365;48.446;8.850;2023-02-05T13:58:29;3.60;91.70
38606;DHT22;24365;48.446;8.850;2023-02-05T14:03:33;3.60;91.80
38606;DHT22;24365;48.446;8.850;2023-02-05T14:08:35;3.60;92.50
38606;DHT22;24365;48.446;8.850;2023-02-05T14:13:37;3.60;93.20
38606;DHT22;24365;48.446;8.850;2023-02-05T14:28:46;3.60;93.20
38606;DHT22;24365;48.446;8.850;2023-02-05T14:33:47;3.60;93.70
38606;DHT22;24365;48.446;8.850;2023-02-05T14:44:01;3.60;92.50
38606;DHT22;24365;48.446;8.850;2023-02-05T14:49:03;3.60;92.50
38606;DHT22;24365;48.446;8.850;2023-02-05T14:54:05;3.70;91.90
38606;DHT22;24365;48.446;8.850;2023-02-05T15:04:47;3.70;90.00
38606;DHT22;24365;48.446;8.850;2023-02-05T15:10:01;3.70;89.80
38606;DHT22;24365;48.446;8.850;2023-02-05T15:15:22;3.80;89.10
38606;DHT22;24365;48.446;8.850;2023-02-05T15:20:27;3.80;89.40
38606;DHT22;24365;48.446;8.850;2023-02-05T15:25:40;3.60;88.50
38606;DHT22;24365;48.446;8.850;2023-02-05T15:35:55;3.60;89.00
38606;DHT22;24365;48.446;8.850;2023-02-05T15:40:58;3.60;88.40
38606;DHT22;24365;48.446;8.850;2023-02-05T15:46:00;3.50;88.00
38606;DHT22;24365;48.446;8.850;2023-02-05T15:51:10;3.50;87.20
38606;DHT22;24365;48.446;8.850;2023-02-05T15:56:21;3.50;87.70
38606;DHT22;24365;48.446;8.850;2023-02-05T16:01:23;3.50;87.10
38606;DHT22;24365;48.446;8.850;2023-02-05T16:06:25;3.40;87.30
38606;DHT22;24365;48.446;8.850;2023-02-05T16:11:27;3.40;88.30
38606;DHT22;24365;48.446;8.850;2023-02-05T16:16:28;3.30;88.70
38606;DHT22;24365;48.446;8.850;2023-02-05T16:21:32;3.20;89.00
38606;DHT22;24365;48.446;8.850;2023-02-05T16:26:38;3.30;89.30
38606;DHT22;24365;48.446;8.850;2023-02-05T16:31:41;3.30;88.50
38606;DHT22;24365;48.446;8.850;2023-02-05T16:36:43;3.30;88.50
38606;DHT22;24365;48.446;8.850;2023-02-05T16:41:44;3.30;88.50
38606;DHT22;24365;48.446;8.850;2023-02-05T16:46:45;3.20;88.30
38606;DHT22;24365;48.446;8.850;2023-02-05T16:52:26;3.30;88.50
38606;DHT22;24365;48.446;8.850;2023-02-05T16:57:31;3.20;87.90
38606;DHT22;24365;48.446;8.850;2023-02-05T17:02:36;3.20;88.10
38606;DHT22;24365;48.446;8.850;2023-02-05T17:07:38;3.20;88.30
38606;DHT22;24365;48.446;8.850;2023-02-05T17:12:44;3.20;88.50
38606;DHT22;24365;48.446;8.850;2023-02-05T17:17:55;3.20;88.10
38606;DHT22;24365;48.446;8.850;2023-02-05T17:28:04;3.30;87.60
38606;DHT22;24365;48.446;8.850;2023-02-05T17:33:05;3.20;87.70
38606;DHT22;24365;48.446;8.850;2023-02-05T17:38:06;3.20;87.70
38606;DHT22;24365;48.446;8.850;2023-02-05T17:43:07;3.20;87.10
38606;DHT22;24365;48.446;8.850;2023-02-05T17:48:08;3.10;87.80
38606;DHT22;24365;48.446;8.850;2023-02-05T17:53:09;3.10;87.70
38606;DHT22;24365;48.446;8.850;2023-02-05T17:58:13;3.10;88.20
38606;DHT22;24365;48.446;8.850;2023-02-05T18:03:14;3.10;87.80
38606;DHT22;24365;48.446;8.850;2023-02-05T18:08:14;3.20;87.50
38606;DHT22;24365;48.446;8.850;2023-02-05T18:13:15;3.20;87.80
38606;DHT22;24365;48.446;8.850;2023-02-05T18:18:17;3.20;87.20
38606;DHT22;24365;48.446;8.850;2023-02-05T18:23:17;3.20;86.60
38606;DHT22;24365;48.446;8.850;2023-02-05T18:28:18;3.20;86.70
38606;DHT22;24365;48.446;8.850;2023-02-05T18:33:19;3.20;86.80
38606;DHT22;24365;48.446;8.850;2023-02-05T18:38:19;3.20;86.50
38606;DHT22;24365;48.446;8.850;2023-02-05T18:43:23;3.20;86.60
38606;DHT22;24365;48.446;8.850;2023-02-05T18:48:24;3.20;86.50
38606;DHT22;24365;48.446;8.850;2023-02-05T18:53:25;3.10;86.70
38606;DHT22;24365;48.446;8.850;2023-02-05T18:58:27;3.10;87.10
38606;DHT22;24365;48.446;8.850;2023-02-05T19:03:28;3.10;87.10
38606;DHT22;24365;48.446;8.850;2023-02-05T19:08:28;3.10;87.10
38606;DHT22;24365;48.446;8.850;2023-02-05T19:13:29;3.00;87.10
38606;DHT22;24365;48.446;8.850;2023-02-05T19:18:33;3.00;87.60
38606;DHT22;24365;48.446;8.850;2023-02-05T19:23:34;3.00;88.00
38606;DHT22;24365;48.446;8.850;2023-02-05T19:28:35;3.00;87.80
38606;DHT22;24365;48.446;8.850;2023-02-05T19:33:36;3.00;87.70
38606;DHT22;24365;48.446;8.850;2023-02-05T19:38:37;3.00;87.40
38606;DHT22;24365;48.446;8.850;2023-02-05T19:43:39;3.00;87.70
38606;DHT22;24365;48.446;8.850;2023-02-05T19:48:40;3.00;87.60
38606;DHT22;24365;48.446;8.850;2023-02-05T19:53:41;2.90;88.00
38606;DHT22;24365;48.446;8.850;2023-02-05T19:58:46;3.00;88.20
38606;DHT22;24365;48.446;8.850;2023-02-05T20:03:46;3.00;88.00
38606;DHT22;24365;48.446;8.850;2023-02-05T20:08:47;2.90;88.30
38606;DHT22;24365;48.446;8.850;2023-02-05T20:13:48;2.80;89.80
38606;DHT22;24365;48.446;8.850;2023-02-05T20:18:53;2.80;90.50
38606;DHT22;24365;48.446;8.850;2023-02-05T20:23:54;2.90;89.50
38606;DHT22;24365;48.446;8.850;2023-02-05T20:28:55;2.90;89.60
38606;DHT22;24365;48.446;8.850;2023-02-05T20:34:16;3.00;89.40
38606;DHT22;24365;48.446;8.850;2023-02-05T20:39:22;3.00;88.70
38606;DHT22;24365;48.446;8.850;2023-02-05T20:44:24;3.00;88.70
38606;DHT22;24365;48.446;8.850;2023-02-05T20:49:25;3.00;88.30
38606;DHT22;24365;48.446;8.850;2023-02-05T20:54:25;2.90;88.90
38606;DHT22;24365;48.446;8.850;2023-02-05T20:59:27;2.90;87.90
38606;DHT22;24365;48.446;8.850;2023-02-05T21:04:28;2.90;87.60
38606;DHT22;24365;48.446;8.850;2023-02-05T21:09:29;2.80;87.90
38606;DHT22;24365;48.446;8.850;2023-02-05T21:14:30;2.80;87.20
38606;DHT22;24365;48.446;8.850;2023-02-05T21:19:30;2.80;87.10
38606;DHT22;24365;48.446;8.850;2023-02-05T21:24:31;2.80;86.50
38606;DHT22;24365;48.446;8.850;2023-02-05T21:29:32;2.80;86.90
38606;DHT22;24365;48.446;8.850;2023-02-05T21:34:33;2.80;86.80
38606;DHT22;24365;48.446;8.850;2023-02-05T21:39:33;2.70;85.20
38606;DHT22;24365;48.446;8.850;2023-02-05T21:44:36;2.70;85.70
38606;DHT22;24365;48.446;8.850;2023-02-05T21:49:37;2.60;85.40
38606;DHT22;24365;48.446;8.850;2023-02-05T21:54:38;2.50;85.90
38606;DHT22;24365;48.446;8.850;2023-02-05T21:59:38;2.50;86.80
38606;DHT22;24365;48.446;8.850;2023-02-05T22:04:39;2.50;86.70
38606;DHT22;24365;48.446;8.850;2023-02-05T22:09:40;2.40;87.80
38606;DHT22;24365;48.446;8.850;2023-02-05T22:14:41;2.40;87.70
38606;DHT22;24365;48.446;8.850;2023-02-05T22:19:42;2.40;88.50
38606;DHT22;24365;48.446;8.850;2023-02-05T22:24:42;2.40;87.20
38606;DHT22;24365;48.446;8.850;2023-02-05T22:29:43;2.40;87.00
38606;DHT22;24365;48.446;8.850;2023-02-05T22:34:44;2.30;87.00
38606;DHT22;24365;48.446;8.850;2023-02-05T22:39:44;2.30;87.00
38606;DHT22;24365;48.446;8.850;2023-02-05T22:44:45;2.20;87.10
38606;DHT22;24365;48.446;8.850;2023-02-05T22:49:46;2.20;87.60
38606;DHT22;24365;48.446;8.850;2023-02-05T22:54:46;2.20;87.90
38606;DHT22;24365;48.446;8.850;2023-02-05T22:59:47;2.20;87.40
38606;DHT22;24365;48.446;8.850;2023-02-05T23:04:48;2.30;87.00
38606;DHT22;24365;48.446;8.850;2023-02-05T23:09:48;2.20;86.30
38606;DHT22;24365;48.446;8.850;2023-02-05T23:14:49;2.20;87.00
38606;DHT22;24365;48.446;8.850;2023-02-05T23:19:50;2.20;87.30
38606;DHT22;24365;48.446;8.850;2023-02-05T23:24:51;2.20;87.50
38606;DHT22;24365;48.446;8.850;2023-02-05T23:29:52;2.20;87.40
38606;DHT22;24365;48.446;8.850;2023-02-05T23:34:52;2.20;88.20
38606;DHT22;24365;48.446;8.850;2023-02-05T23:39:53;2.20;87.90
38606;DHT22;24365;48.446;8.850;2023-02-05T23:44:54;2.20;87.70
38606;DHT22;24365;48.446;8.850;2023-02-05T23:49:54;2.10;89.00
38606;DHT22;24365;48.446;8.850;2023-02-05T23:54:55;2.00;89.10
38606;DHT22;24365;48.446;8.850;2023-02-05T23:59:55;2.10;89.20
